createdAt,value
2023-05-19T00:02:00.454Z,3.88
2023-05-19T00:04:27.842Z,3.95
2023-05-19T00:06:54.571Z,3.88
2023-05-19T00:09:21.438Z,4.10
2023-05-19T00:11:48.381Z,3.60
2023-05-19T00:14:15.203Z,3.78
2023-05-19T00:16:42.434Z,3.85
2023-05-19T00:19:12.408Z,3.63
2023-05-19T00:21:39.258Z,3.80
2023-05-19T00:24:07.101Z,3.58
2023-05-19T00:26:33.816Z,3.97
2023-05-19T00:29:00.380Z,3.85
2023-05-19T00:31:27.141Z,3.90
2023-05-19T00:33:53.861Z,4.13
2023-05-19T00:36:20.629Z,3.75
2023-05-19T00:38:47.189Z,4.10
2023-05-19T00:41:14.089Z,3.97
2023-05-19T00:43:40.815Z,3.45
2023-05-19T00:46:07.567Z,3.95
2023-05-19T00:48:34.323Z,3.58
2023-05-19T00:51:05.274Z,4.00
2023-05-19T00:53:35.541Z,3.30
2023-05-19T00:56:03.290Z,4.20
2023-05-19T00:58:32.575Z,4.43
2023-05-19T01:03:43.149Z,3.42
2023-05-19T01:06:10.140Z,4.05
2023-05-19T01:08:37.880Z,4.15
2023-05-19T01:11:07.973Z,3.88
2023-05-19T01:13:35.618Z,3.78
2023-05-19T01:16:21.672Z,3.83
2023-05-19T01:19:12.345Z,3.88
2023-05-19T01:22:22.967Z,4.18
2023-05-19T01:25:03.958Z,3.75
2023-05-19T01:27:49.445Z,3.97
2023-05-19T01:30:31.243Z,3.90
2023-05-19T01:33:01.797Z,3.92
2023-05-19T01:35:29.286Z,4.03
2023-05-19T01:37:58.378Z,3.42
2023-05-19T01:40:26.525Z,3.83
2023-05-19T01:42:57.400Z,3.60
2023-05-19T01:45:26.003Z,3.67
2023-05-19T01:47:56.122Z,3.40
2023-05-19T01:50:23.274Z,3.60
2023-05-19T01:52:50.084Z,3.85
2023-05-19T01:55:17.009Z,4.22
2023-05-19T01:57:50.724Z,3.70
2023-05-19T02:00:51.993Z,3.95
2023-05-19T02:03:32.656Z,3.88
2023-05-19T02:06:28.405Z,4.07
2023-05-19T02:11:36.973Z,3.40
2023-05-19T02:14:09.624Z,3.47
2023-05-19T02:16:37.346Z,3.95
2023-05-19T02:19:04.105Z,3.70
2023-05-19T02:21:31.092Z,3.70
2023-05-19T02:23:57.798Z,3.85
2023-05-19T02:26:24.449Z,3.65
2023-05-19T02:28:51.008Z,3.42
2023-05-19T02:31:17.753Z,3.95
2023-05-19T02:33:44.807Z,3.53
2023-05-19T02:36:11.412Z,3.60
2023-05-19T02:38:38.014Z,3.60
2023-05-19T02:41:04.653Z,3.50
2023-05-19T02:43:31.181Z,3.72
2023-05-19T02:45:57.757Z,3.53
2023-05-19T02:48:24.362Z,3.75
2023-05-19T02:50:51.013Z,3.40
2023-05-19T02:53:17.619Z,3.50
2023-05-19T02:55:44.342Z,3.80
2023-05-19T02:58:10.996Z,3.30
2023-05-19T03:00:37.607Z,3.47
2023-05-19T03:03:04.676Z,3.58
2023-05-19T03:05:31.554Z,3.60
2023-05-19T03:07:58.267Z,3.63
2023-05-19T03:10:24.968Z,3.67
2023-05-19T03:12:51.506Z,3.70
2023-05-19T03:15:19.313Z,3.28
2023-05-19T03:17:46.010Z,3.03
2023-05-19T03:20:13.075Z,3.53
2023-05-19T03:22:39.644Z,3.42
2023-05-19T03:25:06.463Z,3.63
2023-05-19T03:27:33.025Z,3.75
2023-05-19T03:29:59.565Z,3.45
2023-05-19T03:32:26.400Z,3.63
2023-05-19T03:34:53.048Z,3.17
2023-05-19T03:37:19.682Z,3.83
2023-05-19T03:39:46.305Z,3.25
2023-05-19T03:42:12.909Z,3.25
2023-05-19T03:44:39.613Z,3.25
2023-05-19T03:47:06.343Z,3.38
2023-05-19T03:49:32.948Z,3.30
2023-05-19T03:51:59.589Z,3.87
2023-05-19T03:54:26.277Z,3.05
2023-05-19T03:56:52.841Z,3.38
2023-05-19T03:59:19.828Z,3.60
2023-05-19T04:01:46.573Z,3.30
2023-05-19T04:04:13.139Z,3.20
2023-05-19T04:06:39.847Z,3.40
2023-05-19T04:09:15.219Z,3.88
2023-05-19T04:11:42.883Z,3.47
2023-05-19T04:14:09.715Z,3.10
2023-05-19T04:16:36.337Z,3.72
2023-05-19T04:19:02.997Z,3.50
2023-05-19T04:21:29.592Z,3.40
2023-05-19T04:23:56.285Z,3.22
2023-05-19T04:26:25.052Z,3.38
2023-05-19T04:28:52.112Z,3.63
2023-05-19T04:31:18.738Z,3.90
2023-05-19T04:33:46.139Z,3.40
2023-05-19T04:36:13.831Z,3.20
2023-05-19T04:38:40.578Z,3.70
2023-05-19T04:41:10.838Z,3.17
2023-05-19T04:43:41.960Z,3.33
2023-05-19T04:46:13.167Z,3.03
2023-05-19T04:48:41.242Z,3.58
2023-05-19T04:51:07.998Z,3.17
2023-05-19T04:53:35.105Z,3.33
2023-05-19T04:56:02.336Z,2.95
2023-05-19T04:58:29.257Z,3.42
2023-05-19T05:00:56.085Z,4.22
2023-05-19T05:03:26.579Z,3.30
2023-05-19T05:05:53.510Z,3.28
2023-05-19T05:08:23.403Z,3.75
2023-05-19T05:10:52.629Z,3.75
2023-05-19T05:13:22.277Z,3.35
2023-05-19T05:15:49.256Z,3.47
2023-05-19T05:18:16.241Z,3.05
2023-05-19T05:20:43.624Z,3.65
2023-05-19T05:23:14.579Z,3.10
2023-05-19T05:25:42.180Z,3.90
2023-05-19T05:28:08.996Z,3.40
2023-05-19T05:30:35.844Z,3.30
2023-05-19T05:33:03.284Z,3.88
2023-05-19T05:35:30.049Z,3.33
2023-05-19T05:37:56.793Z,3.28
2023-05-19T05:40:23.381Z,3.20
2023-05-19T05:42:50.027Z,3.60
2023-05-19T05:45:16.901Z,3.30
2023-05-19T05:47:43.792Z,3.13
2023-05-19T05:50:11.092Z,3.28
2023-05-19T05:52:38.101Z,3.35
2023-05-19T05:55:05.546Z,3.10
2023-05-19T05:57:35.245Z,3.20
2023-05-19T06:00:02.440Z,3.10
2023-05-19T06:02:30.053Z,3.47
2023-05-19T06:04:56.954Z,3.13
2023-05-19T06:07:24.457Z,2.72
2023-05-19T06:09:51.208Z,2.88
2023-05-19T06:12:18.182Z,3.08
2023-05-19T06:14:44.816Z,3.15
2023-05-19T06:17:11.377Z,3.10
2023-05-19T06:19:37.980Z,2.88
2023-05-19T06:22:04.690Z,2.80
2023-05-19T06:24:31.261Z,3.17
2023-05-19T06:26:57.845Z,3.15
2023-05-19T06:29:24.455Z,2.63
2023-05-19T06:31:51.416Z,2.88
2023-05-19T06:34:18.179Z,2.70
2023-05-19T06:36:44.969Z,3.00
2023-05-19T06:39:11.581Z,2.78
2023-05-19T06:41:38.195Z,2.90
2023-05-19T06:44:07.132Z,3.10
2023-05-19T06:46:33.924Z,2.65
2023-05-19T06:49:01.067Z,2.92
2023-05-19T06:51:27.872Z,2.90
2023-05-19T06:53:54.489Z,2.90
2023-05-19T06:56:22.888Z,3.03
2023-05-19T06:58:49.668Z,3.30
2023-05-19T07:01:16.286Z,3.08
2023-05-19T07:03:42.966Z,3.10
2023-05-19T07:06:09.819Z,3.10
2023-05-19T07:08:37.327Z,3.05
2023-05-19T07:11:04.171Z,3.08
2023-05-19T07:13:32.961Z,2.90
2023-05-19T07:15:59.565Z,3.25
2023-05-19T07:18:26.356Z,2.97
2023-05-19T07:20:53.974Z,2.85
2023-05-19T07:23:20.665Z,3.05
2023-05-19T07:25:47.313Z,2.63
2023-05-19T07:28:13.951Z,2.85
2023-05-19T07:30:40.545Z,2.80
2023-05-19T07:33:07.148Z,2.70
2023-05-19T07:35:34.003Z,3.00
2023-05-19T07:38:02.402Z,2.75
2023-05-19T07:40:29.011Z,2.88
2023-05-19T07:42:55.870Z,3.13
2023-05-19T07:45:22.560Z,2.80
2023-05-19T07:47:49.139Z,2.83
2023-05-19T07:50:16.382Z,2.90
2023-05-19T07:52:42.955Z,2.47
2023-05-19T07:55:09.624Z,3.05
2023-05-19T07:57:36.338Z,2.42
2023-05-19T08:00:07.742Z,2.30
2023-05-19T08:02:34.534Z,2.63
2023-05-19T08:05:01.263Z,2.47
2023-05-19T08:07:27.943Z,3.00
2023-05-19T08:09:54.592Z,2.63
2023-05-19T08:12:21.208Z,2.67
2023-05-19T08:14:47.820Z,2.63
2023-05-19T08:17:14.447Z,2.85
2023-05-19T08:19:41.146Z,2.63
2023-05-19T08:22:07.891Z,2.72
2023-05-19T08:24:34.590Z,2.47
2023-05-19T08:27:01.404Z,2.30
2023-05-19T08:29:28.157Z,2.80
2023-05-19T08:31:54.974Z,2.58
2023-05-19T08:34:22.421Z,2.60
2023-05-19T08:36:49.091Z,2.80
2023-05-19T08:39:18.339Z,2.75
2023-05-19T08:41:45.019Z,2.75
2023-05-19T08:44:11.670Z,2.67
2023-05-19T08:46:38.502Z,2.72
2023-05-19T08:49:12.348Z,3.00
2023-05-19T08:52:18.650Z,2.97
2023-05-19T08:55:03.059Z,3.00
2023-05-19T08:57:30.135Z,2.72
2023-05-19T08:59:58.335Z,2.78
2023-05-19T09:02:25.937Z,3.10
2023-05-19T09:04:53.554Z,2.67
2023-05-19T09:07:22.925Z,2.78
2023-05-19T09:09:49.627Z,2.63
2023-05-19T09:12:16.306Z,2.78
2023-05-19T09:14:43.063Z,2.83
2023-05-19T09:17:10.223Z,3.00
2023-05-19T09:19:44.401Z,2.65
2023-05-19T09:22:11.646Z,2.83
2023-05-19T09:24:40.464Z,2.78
2023-05-19T09:27:07.120Z,2.90
2023-05-19T09:29:34.058Z,2.53
2023-05-19T09:32:04.282Z,2.63
2023-05-19T09:34:31.222Z,2.80
2023-05-19T09:36:59.969Z,2.47
2023-05-19T09:39:26.851Z,2.50
2023-05-19T09:41:55.039Z,2.28
2023-05-19T09:44:23.489Z,2.60
2023-05-19T09:46:51.585Z,2.30
2023-05-19T09:49:30.535Z,2.40
2023-05-19T09:51:58.668Z,2.60
2023-05-19T09:54:28.459Z,2.50
2023-05-19T09:56:59.326Z,2.60
2023-05-19T09:59:27.546Z,2.28
2023-05-19T10:01:57.032Z,2.53
2023-05-19T10:04:28.107Z,2.25
2023-05-19T10:06:56.258Z,2.33
2023-05-19T10:09:27.107Z,2.75
2023-05-19T10:11:54.986Z,2.33
2023-05-19T10:14:24.643Z,2.72
2023-05-19T10:16:55.206Z,2.50
2023-05-19T10:21:50.352Z,2.25
2023-05-19T10:24:17.961Z,2.42
2023-05-19T10:26:47.468Z,2.33
2023-05-19T10:29:17.815Z,2.67
2023-05-19T10:31:46.286Z,2.63
2023-05-19T10:34:19.214Z,2.30
2023-05-19T10:36:54.546Z,2.40
2023-05-19T10:39:31.729Z,2.47
2023-05-19T10:42:07.026Z,2.03
2023-05-19T10:45:03.586Z,2.30
2023-05-19T10:47:30.342Z,2.55
2023-05-19T10:50:00.209Z,2.40
2023-05-19T10:52:27.110Z,2.20
2023-05-19T10:54:54.893Z,2.38
2023-05-19T10:57:28.478Z,2.42
2023-05-19T10:59:57.136Z,2.35
2023-05-19T11:02:43.352Z,2.35
2023-05-19T11:05:18.548Z,2.50
2023-05-19T11:07:56.307Z,2.35
2023-05-19T11:10:24.111Z,1.95
2023-05-19T11:12:52.210Z,2.45
2023-05-19T11:15:18.966Z,2.30
2023-05-19T11:17:48.631Z,2.33
2023-05-19T11:20:26.629Z,2.35
2023-05-19T11:23:10.471Z,2.30
2023-05-19T11:25:48.233Z,2.45
2023-05-19T11:28:28.052Z,2.28
2023-05-19T11:30:57.766Z,2.10
2023-05-19T11:33:27.343Z,2.40
2023-05-19T11:35:58.096Z,2.35
2023-05-19T11:40:54.701Z,2.17
2023-05-19T11:43:25.199Z,2.20
2023-05-19T11:45:54.575Z,2.00
2023-05-19T11:48:22.010Z,2.25
2023-05-19T11:50:49.050Z,2.22
2023-05-19T11:53:19.970Z,2.50
2023-05-19T11:55:48.431Z,2.00
2023-05-19T11:58:16.291Z,2.25
2023-05-19T12:00:46.064Z,2.28
2023-05-19T12:03:13.271Z,2.08
2023-05-19T12:05:45.731Z,2.42
2023-05-19T12:08:13.001Z,2.20
2023-05-19T12:10:40.708Z,2.33
2023-05-19T12:13:09.621Z,2.22
2023-05-19T12:15:36.834Z,2.15
2023-05-19T12:18:03.847Z,2.13
2023-05-19T12:20:36.340Z,1.98
2023-05-19T12:23:03.899Z,1.95
2023-05-19T12:25:31.465Z,2.17
2023-05-19T12:28:03.231Z,2.22
2023-05-19T12:30:31.574Z,2.60
2023-05-19T12:32:58.752Z,2.20
2023-05-19T12:35:29.757Z,2.60
2023-05-19T12:37:56.471Z,2.05
2023-05-19T12:40:23.301Z,2.25
2023-05-19T12:42:53.411Z,2.17
2023-05-19T12:45:23.432Z,2.20
2023-05-19T12:47:51.817Z,2.10
2023-05-19T12:50:18.997Z,1.77
2023-05-19T12:52:53.328Z,2.13
2023-05-19T12:55:21.081Z,2.33
2023-05-19T12:57:57.371Z,2.13
2023-05-19T13:00:30.350Z,2.20
2023-05-19T13:03:06.707Z,2.30
2023-05-19T13:05:38.655Z,2.00
2023-05-19T13:08:09.052Z,2.15
2023-05-19T13:10:37.414Z,2.10
2023-05-19T13:13:05.197Z,2.00
2023-05-19T13:15:36.534Z,2.13
2023-05-19T13:18:13.148Z,1.95
2023-05-19T13:20:42.545Z,1.88
2023-05-19T13:23:13.635Z,1.70
2023-05-19T13:25:42.149Z,1.95
2023-05-19T13:28:09.533Z,1.73
2023-05-19T13:30:38.709Z,2.13
2023-05-19T13:33:06.060Z,1.85
2023-05-19T13:35:39.078Z,2.00
2023-05-19T13:38:10.296Z,1.77
2023-05-19T13:40:37.728Z,1.85
2023-05-19T13:43:04.595Z,1.80
2023-05-19T13:45:31.494Z,1.88
2023-05-19T13:47:58.326Z,2.08
2023-05-19T13:50:25.136Z,2.00
2023-05-19T13:52:52.087Z,1.92
2023-05-19T13:55:19.141Z,1.77
2023-05-19T13:57:45.699Z,1.60
2023-05-19T14:00:12.733Z,1.88
2023-05-19T14:02:39.780Z,1.75
2023-05-19T14:05:07.420Z,2.10
2023-05-19T14:07:37.554Z,2.03
2023-05-19T14:10:08.079Z,1.70
2023-05-19T14:12:47.814Z,1.58
2023-05-19T14:15:19.199Z,1.45
2023-05-19T14:17:46.313Z,1.55
2023-05-19T14:20:13.105Z,1.63
2023-05-19T14:22:39.928Z,1.67
2023-05-19T14:25:07.107Z,1.65
2023-05-19T14:27:33.642Z,1.63
2023-05-19T14:30:00.333Z,1.73
2023-05-19T14:32:28.752Z,1.83
2023-05-19T14:34:56.839Z,1.90
2023-05-19T14:37:23.465Z,1.83
2023-05-19T14:39:50.120Z,1.60
2023-05-19T14:42:16.660Z,1.85
2023-05-19T14:44:43.292Z,2.05
2023-05-19T14:47:11.405Z,2.13
2023-05-19T14:49:38.224Z,1.88
2023-05-19T14:52:05.119Z,1.90
2023-05-19T14:54:31.803Z,1.67
2023-05-19T14:56:58.581Z,1.67
2023-05-19T14:59:25.562Z,2.13
2023-05-19T15:01:52.344Z,2.00
2023-05-19T15:04:19.220Z,2.05
2023-05-19T15:06:48.192Z,1.90
2023-05-19T15:09:20.535Z,1.73
2023-05-19T15:11:47.108Z,2.00
2023-05-19T15:14:13.701Z,1.90
2023-05-19T15:16:40.626Z,2.38
2023-05-19T15:19:07.237Z,1.75
2023-05-19T15:21:33.839Z,1.92
2023-05-19T15:24:00.632Z,2.22
2023-05-19T15:26:29.557Z,2.05
2023-05-19T15:28:56.352Z,1.80
2023-05-19T15:31:23.184Z,1.70
2023-05-19T15:33:49.866Z,2.17
2023-05-19T15:36:17.259Z,2.20
2023-05-19T15:38:43.979Z,1.95
2023-05-19T15:41:10.578Z,1.73
2023-05-19T15:43:37.320Z,1.85
2023-05-19T15:46:05.121Z,1.92
2023-05-19T15:48:32.468Z,2.00
2023-05-19T15:50:59.616Z,1.60
2023-05-19T15:53:26.752Z,1.52
2023-05-19T16:09:11.247Z,1.63
2023-05-19T16:11:37.811Z,1.98
2023-05-19T16:14:04.364Z,2.47
2023-05-19T16:16:31.075Z,2.30
2023-05-19T16:18:57.716Z,1.90
2023-05-19T16:21:24.387Z,2.13
2023-05-19T16:23:51.037Z,2.17
2023-05-19T16:26:17.701Z,2.03
2023-05-19T16:28:44.297Z,2.00
2023-05-19T16:31:11.235Z,1.77
2023-05-19T16:33:37.813Z,1.92
2023-05-19T16:36:06.461Z,2.03
2023-05-19T16:38:34.115Z,2.03
2023-05-19T16:41:00.803Z,2.17
2023-05-19T16:43:27.380Z,1.92
2023-05-19T16:45:54.426Z,1.92
2023-05-19T16:48:21.074Z,2.10
2023-05-19T16:50:49.076Z,1.95
2023-05-19T16:53:15.855Z,1.88
2023-05-19T16:55:42.411Z,1.90
2023-05-19T16:58:10.651Z,2.15
2023-05-19T17:00:37.292Z,1.73
2023-05-19T17:03:04.721Z,2.20
2023-05-19T17:05:32.057Z,2.17
2023-05-19T17:07:58.648Z,1.70
2023-05-19T17:10:25.479Z,1.90
2023-05-19T17:12:52.060Z,1.77
2023-05-19T17:15:19.222Z,2.00
2023-05-19T17:17:45.886Z,2.30
2023-05-19T17:20:13.432Z,1.58
2023-05-19T17:22:40.068Z,1.70
2023-05-19T17:25:07.080Z,1.90
2023-05-19T17:27:33.795Z,2.10
2023-05-19T17:30:00.414Z,1.85
2023-05-19T17:32:28.984Z,2.40
2023-05-19T17:34:55.938Z,1.92
2023-05-19T17:37:25.769Z,2.00
2023-05-19T17:39:52.654Z,1.83
2023-05-19T17:42:19.436Z,2.00
2023-05-19T17:44:46.074Z,2.13
2023-05-19T17:47:12.704Z,1.70
2023-05-19T17:49:40.518Z,1.85
2023-05-19T17:52:07.756Z,2.20
2023-05-19T17:54:34.722Z,1.90
2023-05-19T17:57:03.679Z,2.17
2023-05-19T17:59:30.556Z,2.05
2023-05-19T18:01:57.590Z,1.75
2023-05-19T18:04:24.720Z,1.88
2023-05-19T18:06:51.987Z,1.90
2023-05-19T18:09:20.212Z,2.13
2023-05-19T18:11:47.057Z,1.80
2023-05-19T18:14:13.587Z,1.60
2023-05-19T18:16:40.276Z,1.90
2023-05-19T18:19:07.172Z,2.20
2023-05-19T18:21:33.919Z,1.92
2023-05-19T18:24:03.147Z,2.22
2023-05-19T18:26:31.256Z,2.00
2023-05-19T18:29:02.497Z,2.30
2023-05-19T18:31:29.273Z,1.77
2023-05-19T18:33:56.302Z,1.75
2023-05-19T18:36:23.587Z,2.13
2023-05-19T18:38:50.252Z,2.60
2023-05-19T18:41:16.972Z,2.30
2023-05-19T18:43:43.746Z,2.50
2023-05-19T18:46:10.582Z,2.22
2023-05-19T18:48:37.372Z,2.25
2023-05-19T18:51:04.153Z,2.03
2023-05-19T18:53:37.393Z,2.30
2023-05-19T18:56:04.140Z,1.92
2023-05-19T18:58:30.880Z,1.95
2023-05-19T19:00:57.977Z,2.55
2023-05-19T19:03:24.888Z,2.05
2023-05-19T19:05:58.581Z,2.15
2023-05-19T19:08:25.541Z,1.73
2023-05-19T19:10:52.244Z,2.15
2023-05-19T19:13:19.111Z,2.38
2023-05-19T19:15:46.160Z,2.08
2023-05-19T19:18:12.823Z,2.15
2023-05-19T19:20:39.529Z,2.00
2023-05-19T19:23:06.958Z,2.20
2023-05-19T19:25:33.738Z,2.08
2023-05-19T19:28:01.437Z,2.20
2023-05-19T19:30:29.279Z,2.30
2023-05-19T19:32:57.053Z,2.30
2023-05-19T19:35:23.691Z,2.17
2023-05-19T19:37:51.976Z,2.10
2023-05-19T19:40:18.630Z,2.45
2023-05-19T19:42:45.404Z,2.15
2023-05-19T19:45:14.757Z,2.38
2023-05-19T19:47:42.261Z,2.08
2023-05-19T19:50:10.232Z,2.25
2023-05-19T19:52:37.453Z,2.20
2023-05-19T19:55:04.429Z,2.38
2023-05-19T19:57:34.089Z,1.90
2023-05-19T20:00:07.819Z,2.25
2023-05-19T20:02:36.148Z,2.13
2023-05-19T20:05:03.321Z,2.35
2023-05-19T20:07:30.208Z,2.40
2023-05-19T20:09:56.854Z,2.67
2023-05-19T20:12:23.488Z,2.53
2023-05-19T20:14:52.944Z,2.17
2023-05-19T20:17:19.687Z,2.17
2023-05-19T20:19:46.261Z,2.22
2023-05-19T20:22:13.004Z,2.58
2023-05-19T20:24:39.708Z,2.33
2023-05-19T20:27:07.415Z,2.60
2023-05-19T20:29:34.093Z,2.70
2023-05-19T20:32:00.712Z,2.95
2023-05-19T20:34:27.709Z,2.17
2023-05-19T20:36:55.411Z,2.30
2023-05-19T20:39:22.128Z,2.60
2023-05-19T20:41:48.696Z,2.58
2023-05-19T20:44:15.438Z,2.75
2023-05-19T20:46:42.254Z,2.33
2023-05-19T20:49:08.789Z,2.38
2023-05-19T20:51:36.076Z,2.15
2023-05-19T20:54:02.712Z,2.30
2023-05-19T20:56:29.304Z,2.40
2023-05-19T20:58:56.084Z,2.20
2023-05-19T21:01:22.784Z,2.20
2023-05-19T21:03:49.493Z,2.35
2023-05-19T21:06:16.146Z,2.55
2023-05-19T21:08:42.753Z,2.08
2023-05-19T21:11:09.351Z,2.17
2023-05-19T21:13:39.250Z,2.40
2023-05-19T21:16:06.172Z,2.13
2023-05-19T21:18:32.727Z,2.45
2023-05-19T21:21:02.586Z,2.38
2023-05-19T21:23:29.365Z,1.90
2023-05-19T21:25:58.172Z,2.25
2023-05-19T21:28:24.818Z,2.38
2023-05-19T21:30:51.425Z,2.60
2023-05-19T21:33:18.163Z,2.40
2023-05-19T21:35:45.933Z,2.22
2023-05-19T21:38:23.517Z,2.58
2023-05-19T21:40:51.002Z,2.47
2023-05-19T21:43:17.699Z,2.53
2023-05-19T21:45:44.286Z,2.63
2023-05-19T21:48:11.765Z,2.15
2023-05-19T21:50:38.718Z,2.50
2023-05-19T21:53:05.671Z,2.60
2023-05-19T21:55:32.369Z,2.50
2023-05-19T21:58:00.348Z,2.78
2023-05-19T22:00:28.925Z,2.50
2023-05-19T22:02:55.659Z,2.70
2023-05-19T22:05:22.523Z,2.60
2023-05-19T22:07:49.077Z,2.30
2023-05-19T22:10:15.816Z,2.70
2023-05-19T22:12:42.385Z,2.47
2023-05-19T22:15:09.731Z,2.30
2023-05-19T22:17:36.813Z,2.53
2023-05-19T22:20:03.718Z,2.25
2023-05-19T22:22:30.563Z,2.97
2023-05-19T22:24:57.488Z,2.45
2023-05-19T22:27:24.075Z,2.78
2023-05-19T22:29:50.661Z,2.50
2023-05-19T22:32:18.639Z,2.58
2023-05-19T22:34:46.292Z,2.90
2023-05-19T22:37:13.015Z,2.63
2023-05-19T22:39:39.830Z,3.05
2023-05-19T22:42:06.373Z,2.53
2023-05-19T22:44:32.966Z,2.95
2023-05-19T22:47:00.753Z,3.00
2023-05-19T22:49:27.548Z,2.85
2023-05-19T22:51:54.158Z,2.63
2023-05-19T22:54:21.837Z,3.10
2023-05-19T22:56:49.020Z,2.70
2023-05-19T22:59:18.013Z,3.10
2023-05-19T23:01:46.923Z,2.63
2023-05-19T23:04:14.050Z,2.83
2023-05-19T23:06:41.394Z,2.60
2023-05-19T23:09:08.363Z,3.13
2023-05-19T23:11:35.998Z,2.60
2023-05-19T23:14:02.719Z,2.63
2023-05-19T23:16:29.372Z,2.70
2023-05-19T23:18:56.039Z,2.30
2023-05-19T23:21:22.653Z,2.55
2023-05-19T23:23:49.999Z,2.70
2023-05-19T23:26:16.742Z,2.53
2023-05-19T23:28:43.758Z,2.75
2023-05-19T23:31:10.720Z,2.58
2023-05-19T23:33:37.416Z,2.83
2023-05-19T23:36:08.701Z,2.70
2023-05-19T23:38:36.221Z,2.72
2023-05-19T23:41:03.149Z,2.70
2023-05-19T23:43:29.785Z,2.58
2023-05-19T23:45:56.494Z,2.63
2023-05-19T23:48:23.046Z,2.80
2023-05-19T23:50:49.809Z,2.30
2023-05-19T23:53:17.377Z,2.50
2023-05-19T23:55:44.730Z,2.22
2023-05-19T23:58:11.376Z,2.70
